Time;durP1;ratioP1;P1;durP2;ratioP2;P2;SDS_P1;SDS_P2;PMS_P1;PMS_P2;Temp;Humidity;BMP_temperature;BMP_pressure;BME280_temperature;BME280_humidity;BME280_pressure;Samples;Min_cycle;Max_cycle;Signal;HPM_P1;HPM_P2
2021/10/01 00:00:08;;;;;;;5.45;1.83;;;;;;;9.49;73.30;100675.25;1088377;54;20027;-80
2021/10/01 00:01:10;;;;;;;5.40;1.90;;;;;;;9.46;73.31;100668.31;1088489;54;20045;-80
2021/10/01 00:02:15;;;;;;;5.10;2.00;;;;;;;9.49;73.32;100675.25;1088418;54;20018;-80
2021/10/01 00:03:17;;;;;;;6.20;1.70;;;;;;;9.54;72.90;100677.56;1088481;54;20042;-80
2021/10/01 00:04:22;;;;;;;4.50;1.80;;;;;;;9.54;73.30;100680.22;1088507;54;20018;-80
2021/10/01 00:05:24;;;;;;;5.38;2.00;;;;;;;9.58;72.77;100668.31;1090959;31;20745;-80
2021/10/01 00:06:29;;;;;;;5.18;1.60;;;;;;;9.57;72.70;100670.16;1122206;31;20801;-81
2021/10/01 00:07:31;;;;;;;5.65;2.00;;;;;;;9.54;72.94;100682.91;1088441;54;20038;-80
2021/10/01 00:08:39;;;;;;;4.15;1.65;;;;;;;9.52;72.96;100677.66;1088480;54;20103;-80
2021/10/01 00:09:43;;;;;;;6.20;1.73;;;;;;;9.45;73.36;100684.47;1088484;54;20025;-80
2021/10/01 00:10:48;;;;;;;7.22;2.30;;;;;;;9.46;73.05;100673.66;1088499;54;20018;-79
2021/10/01 00:11:52;;;;;;;6.03;1.90;;;;;;;9.52;73.12;100678.53;1088538;54;20019;-80
2021/10/01 00:12:56;;;;;;;5.35;1.70;;;;;;;9.58;72.67;100669.19;1088411;54;20038;-79
2021/10/01 00:13:58;;;;;;;5.55;1.50;;;;;;;9.48;73.21;100674.38;1088574;54;20066;-80
2021/10/01 00:15:04;;;;;;;4.50;1.70;;;;;;;9.45;73.53;100671.97;1088442;54;20011;-82
2021/10/01 00:16:06;;;;;;;4.97;1.95;;;;;;;9.46;73.64;100665.66;1087916;54;20049;-80
2021/10/01 00:17:11;;;;;;;4.82;1.70;;;;;;;9.37;73.83;100663.72;1087892;54;20840;-81
2021/10/01 00:18:14;;;;;;;3.63;1.50;;;;;;;9.35;74.26;100663.00;1088422;54;20045;-80
2021/10/01 00:19:19;;;;;;;6.50;2.30;;;;;;;9.34;74.19;100659.47;1088453;54;20041;-80
2021/10/01 00:20:21;;;;;;;5.35;1.98;;;;;;;9.30;74.29;100662.50;1102777;39;20538;-80
2021/10/01 00:21:26;;;;;;;4.93;1.73;;;;;;;9.32;74.54;100655.25;1088513;54;20106;-81
2021/10/01 00:22:27;;;;;;;5.43;1.85;;;;;;;9.28;74.67;100656.44;1088637;54;20029;-81
2021/10/01 00:23:32;;;;;;;6.85;1.95;;;;;;;9.20;74.58;100655.25;1088487;54;20054;-81
2021/10/01 00:24:38;;;;;;;4.75;2.10;;;;;;;9.12;75.09;100656.78;1102852;46;20023;-80
2021/10/01 00:25:42;;;;;;;5.88;1.95;;;;;;;9.28;74.47;100651.09;1088543;54;20014;-80
2021/10/01 00:26:53;;;;;;;5.80;2.30;;;;;;;9.27;74.26;100647.59;1088504;54;20018;-81
2021/10/01 00:27:57;;;;;;;4.68;1.88;;;;;;;9.26;74.12;100643.22;1088547;54;20026;-80
2021/10/01 00:29:01;;;;;;;7.65;2.13;;;;;;;9.21;74.36;100648.94;1088454;54;20027;-80
2021/10/01 00:30:04;;;;;;;5.30;1.88;;;;;;;9.17;74.26;100649.31;1088372;54;20788;-80
2021/10/01 00:31:08;;;;;;;4.28;1.83;;;;;;;9.19;74.31;100652.69;1088379;54;20041;-80
2021/10/01 00:32:11;;;;;;;5.78;1.90;;;;;;;9.16;74.08;100656.44;1088467;54;20018;-80
2021/10/01 00:33:15;;;;;;;5.53;2.08;;;;;;;9.22;73.94;100649.78;1088442;54;20817;-80
2021/10/01 00:34:17;;;;;;;5.20;2.10;;;;;;;9.19;73.95;100653.53;1088499;54;20098;-79
2021/10/01 00:35:22;;;;;;;5.95;2.08;;;;;;;9.19;73.84;100647.38;1088529;54;20031;-79
2021/10/01 00:36:24;;;;;;;6.18;1.95;;;;;;;9.25;73.49;100641.53;1088353;54;20071;-80
2021/10/01 00:37:28;;;;;;;5.13;1.63;;;;;;;9.32;73.45;100649.91;1088468;54;20038;-79
2021/10/01 00:38:31;;;;;;;4.82;1.90;;;;;;;9.36;73.14;100643.34;1088437;54;20034;-79
2021/10/01 00:39:35;;;;;;;6.93;1.80;;;;;;;9.34;73.04;100642.63;1088491;54;20134;-80
2021/10/01 00:40:38;;;;;;;4.30;1.63;;;;;;;9.34;73.18;100643.47;1098148;39;20222;-80
2021/10/01 00:41:46;;;;;;;3.50;1.67;;;;;;;9.36;73.27;100640.66;1088108;54;20033;-80
2021/10/01 00:42:47;;;;;;;4.32;1.50;;;;;;;9.39;73.31;100637.75;1088270;54;20026;-80
2021/10/01 00:43:58;;;;;;;5.07;1.50;;;;;;;9.46;73.36;100641.63;1088376;54;20041;-80
2021/10/01 00:44:59;;;;;;;5.20;2.03;;;;;;;9.43;73.27;100633.91;1088444;54;20037;-79
2021/10/01 00:46:04;;;;;;;6.53;2.00;;;;;;;9.46;73.13;100638.97;1088464;54;20026;-80
2021/10/01 00:47:06;;;;;;;5.70;1.90;;;;;;;9.49;72.97;100641.41;1088457;54;20042;-80
2021/10/01 00:48:10;;;;;;;4.10;1.70;;;;;;;9.60;73.04;100634.34;1088252;54;20038;-80
2021/10/01 00:49:12;;;;;;;5.00;2.00;;;;;;;9.58;72.73;100636.28;1088434;54;20026;-81
2021/10/01 00:50:17;;;;;;;5.60;1.67;;;;;;;9.45;73.25;100631.94;1088404;54;20041;-80
2021/10/01 00:51:22;;;;;;;4.25;1.92;;;;;;;9.50;73.28;100627.09;1090798;46;20031;-80
2021/10/01 00:52:26;;;;;;;6.63;1.60;;;;;;;9.60;73.00;100631.69;1088496;54;20030;-80
2021/10/01 00:53:31;;;;;;;5.47;1.80;;;;;;;9.60;72.72;100632.50;1088307;54;20030;-81
2021/10/01 00:54:37;;;;;;;4.47;1.75;;;;;;;9.56;73.00;100631.09;1088392;54;20047;-79
2021/10/01 00:55:39;;;;;;;4.28;1.65;;;;;;;9.60;73.00;100629.00;1088330;54;20018;-79
2021/10/01 00:56:47;;;;;;;5.45;1.60;;;;;;;9.69;72.77;100625.59;1091339;39;20625;-80
2021/10/01 00:57:49;;;;;;;4.65;1.60;;;;;;;9.76;72.29;100618.78;1089318;46;20091;-80
2021/10/01 00:58:54;;;;;;;4.05;1.63;;;;;;;9.80;72.38;100630.91;1088261;54;20026;-80
2021/10/01 00:59:56;;;;;;;5.68;1.83;;;;;;;9.83;72.20;100625.28;1088334;54;20023;-80
2021/10/01 01:01:12;;;;;;;4.45;1.70;;;;;;;9.81;72.47;100621.06;1088310;54;20018;-79
2021/10/01 01:02:14;;;;;;;3.45;1.38;;;;;;;9.88;72.17;100621.41;1088401;54;20042;-79
2021/10/01 01:03:19;;;;;;;5.10;1.50;;;;;;;9.91;72.15;100621.16;1088450;54;20835;-80
2021/10/01 01:04:21;;;;;;;5.03;1.98;;;;;;;9.89;72.47;100620.44;1088364;54;20027;-79
2021/10/01 01:05:44;;;;;;;5.95;1.70;;;;;;;9.91;72.41;100615.81;1088347;54;20034;-80
2021/10/01 01:06:55;;;;;;;3.75;1.33;;;;;;;9.89;72.74;100615.09;1088269;54;20042;-80
2021/10/01 01:08:05;;;;;;;4.15;1.63;;;;;;;9.90;72.49;100614.13;1088414;54;20065;-81
2021/10/01 01:09:20;;;;;;;3.78;1.45;;;;;;;9.90;72.91;100614.13;1088431;54;20023;-80
2021/10/01 01:10:38;;;;;;;3.85;1.52;;;;;;;9.87;72.93;100615.22;1088508;54;20053;-80
2021/10/01 01:11:58;;;;;;;4.07;1.60;;;;;;;9.87;73.13;100609.88;1088404;54;20026;-81
2021/10/01 01:13:12;;;;;;;4.40;1.60;;;;;;;9.87;72.82;100617.88;1088452;54;20022;-79
2021/10/01 01:14:20;;;;;;;5.95;1.90;;;;;;;9.90;72.72;100611.47;1088295;54;20030;-80
2021/10/01 01:15:29;;;;;;;3.92;1.77;;;;;;;9.92;72.87;100612.19;1088965;46;20074;-80
2021/10/01 01:16:35;;;;;;;4.50;1.65;;;;;;;9.94;72.71;100605.75;1088412;54;20026;-79
2021/10/01 01:17:45;;;;;;;7.20;1.80;;;;;;;9.96;73.06;100610.94;1089007;46;20039;-80
2021/10/01 01:18:49;;;;;;;4.63;1.90;;;;;;;9.97;72.89;100599.28;1088366;54;20033;-80
2021/10/01 01:20:10;;;;;;;5.72;1.50;;;;;;;9.94;73.19;100610.22;1088376;54;20019;-81
2021/10/01 01:21:17;;;;;;;;;;;;;;;9.88;73.52;100606.22;1088174;54;20058;-79
2021/10/01 01:22:39;;;;;;;6.70;1.98;;;;;;;9.89;73.17;100604.41;1087958;54;19945;-80
2021/10/01 01:24:07;;;;;;;4.55;2.03;;;;;;;9.87;73.56;100606.38;1087925;54;20038;-79
2021/10/01 01:25:42;;;;;;;3.15;1.50;;;;;;;9.86;73.53;100610.00;1088185;54;20038;-79
2021/10/01 01:27:06;;;;;;;4.75;1.90;;;;;;;9.78;73.73;100606.16;1088363;54;20034;-80
2021/10/01 01:28:14;;;;;;;5.10;1.77;;;;;;;9.82;73.63;100599.56;1088237;54;20030;-80
2021/10/01 01:29:30;;;;;;;5.15;1.77;;;;;;;9.80;73.49;100604.22;1088199;54;20018;-79
2021/10/01 01:30:40;;;;;;;5.10;1.85;;;;;;;9.77;73.83;100604.44;1088333;54;20078;-81
2021/10/01 01:31:47;;;;;;;5.10;1.88;;;;;;;9.79;73.62;100602.50;1088385;54;20019;-81
2021/10/01 01:32:58;;;;;;;6.10;1.90;;;;;;;9.80;73.88;100606.88;1088361;54;20022;-80
2021/10/01 01:34:01;;;;;;;5.47;1.80;;;;;;;9.79;73.62;100602.50;1088221;54;20038;-80
2021/10/01 01:35:10;;;;;;;6.10;1.50;;;;;;;9.78;73.63;100597.28;1088196;54;20035;-80
2021/10/01 01:36:18;;;;;;;5.53;2.10;;;;;;;9.71;73.95;100601.44;1088265;54;20041;-80
2021/10/01 01:37:24;;;;;;;5.43;2.33;;;;;;;9.69;74.11;100598.91;1088243;54;20038;-80
2021/10/01 01:38:39;;;;;;;5.13;2.08;;;;;;;9.67;74.04;100601.69;1090766;39;20688;-81
2021/10/01 01:39:42;;;;;;;5.00;1.98;;;;;;;9.60;74.28;100586.28;1088274;54;20030;-80
2021/10/01 01:41:02;;;;;;;4.07;1.67;;;;;;;9.63;74.13;100602.91;1088286;54;20034;-79
2021/10/01 01:42:06;;;;;;;3.90;1.65;;;;;;;9.65;74.16;100589.44;1089199;46;20042;-81
2021/10/01 01:43:16;;;;;;;3.90;1.70;;;;;;;9.60;74.35;100595.13;1088285;54;20057;-81
2021/10/01 01:44:18;;;;;;;;;;;;;;;9.55;74.84;100592.00;1088423;54;20031;-81
2021/10/01 01:45:24;;;;;;;5.38;1.83;;;;;;;9.56;74.32;100585.72;1088287;54;19931;-79
2021/10/01 01:46:27;;;;;;;4.72;1.60;;;;;;;9.60;74.29;100580.97;1088432;54;20027;-81
2021/10/01 01:47:32;;;;;;;3.92;1.50;;;;;;;9.62;74.11;100579.84;1088323;54;20046;-80
2021/10/01 01:48:39;;;;;;;4.43;1.73;;;;;;;9.64;74.36;100588.59;1088343;54;20046;-80
2021/10/01 01:49:45;;;;;;;4.00;1.67;;;;;;;9.69;73.90;100580.22;1088362;54;20019;-80
2021/10/01 01:50:51;;;;;;;6.47;1.65;;;;;;;9.73;73.90;100589.63;1088384;54;20034;-80
2021/10/01 01:51:53;;;;;;;5.32;1.70;;;;;;;9.68;74.13;100583.84;1088291;54;20034;-80
2021/10/01 01:53:05;;;;;;;5.38;1.90;;;;;;;9.68;74.42;100583.84;1088237;54;20030;-80
2021/10/01 01:54:11;;;;;;;4.50;1.73;;;;;;;9.70;74.13;100581.03;1088407;54;20033;-79
2021/10/01 01:55:16;;;;;;;6.82;1.95;;;;;;;9.66;74.22;100588.47;1088575;39;20621;-80
2021/10/01 01:56:19;;;;;;;5.47;1.48;;;;;;;9.67;74.02;100582.16;1088345;54;20038;-79
2021/10/01 01:57:26;;;;;;;3.88;1.67;;;;;;;9.67;74.37;100582.16;1088312;54;20030;-80
2021/10/01 01:58:29;;;;;;;6.03;1.77;;;;;;;9.64;74.41;100577.03;1088325;54;20019;-79
2021/10/01 01:59:36;;;;;;;4.00;1.35;;;;;;;9.66;74.25;100570.63;1088210;54;20042;-82
2021/10/01 02:00:41;;;;;;;4.57;1.50;;;;;;;9.65;74.32;100576.94;1088292;54;20026;-79
2021/10/01 02:01:44;;;;;;;4.55;1.90;;;;;;;9.68;74.34;100576.66;1088360;54;20038;-80
2021/10/01 02:02:50;;;;;;;6.10;1.60;;;;;;;9.70;74.12;100576.56;1088383;54;20018;-81
2021/10/01 02:03:55;;;;;;;3.78;1.75;;;;;;;9.70;74.21;100567.69;1088289;54;20034;-80
2021/10/01 02:05:01;;;;;;;5.40;1.70;;;;;;;9.71;74.10;100572.06;1088250;54;20019;-80
2021/10/01 02:06:04;;;;;;;5.50;1.90;;;;;;;9.72;74.04;100569.28;1093461;39;20311;-81
2021/10/01 02:07:09;;;;;;;5.43;1.90;;;;;;;9.67;74.32;100571.47;1091326;46;20041;-80
2021/10/01 02:08:12;;;;;;;5.50;1.95;;;;;;;9.65;74.28;100568.94;1088240;54;20022;-81
2021/10/01 02:09:18;;;;;;;4.47;1.90;;;;;;;9.61;74.35;100571.97;1088284;54;20034;-80
2021/10/01 02:10:21;;;;;;;4.55;1.67;;;;;;;9.63;74.32;100565.53;1088364;54;20046;-80
2021/10/01 02:11:29;;;;;;;4.90;1.90;;;;;;;9.59;74.45;100560.56;1088290;54;20662;-80
2021/10/01 02:12:34;;;;;;;4.38;1.70;;;;;;;9.59;74.40;100565.91;1088166;54;20018;-81
2021/10/01 02:13:41;;;;;;;5.68;1.85;;;;;;;9.56;74.65;100567.03;1088190;54;20034;-81
2021/10/01 02:14:47;;;;;;;4.07;1.60;;;;;;;9.56;74.51;100559.00;1088270;54;20037;-80
2021/10/01 02:15:54;;;;;;;5.95;1.80;;;;;;;9.56;74.46;100555.47;1091253;39;20655;-80
2021/10/01 02:16:58;;;;;;;4.70;1.60;;;;;;;9.56;74.41;100558.16;1088180;54;20026;-80
2021/10/01 02:18:04;;;;;;;5.47;1.95;;;;;;;9.56;74.25;100552.81;1088188;39;20798;-80
2021/10/01 02:19:11;;;;;;;4.95;1.63;;;;;;;9.56;74.53;100550.13;1088200;54;20034;-80
2021/10/01 02:20:18;;;;;;;4.47;1.50;;;;;;;9.54;74.25;100542.28;1088177;54;20027;-80
2021/10/01 02:21:23;;;;;;;4.55;1.80;;;;;;;9.57;74.14;100546.50;1088318;54;20038;-79
2021/10/01 02:22:34;;;;;;;5.13;1.92;;;;;;;9.59;73.92;100547.22;1088178;54;20034;-79
2021/10/01 02:23:35;;;;;;;3.50;1.30;;;;;;;9.60;74.07;100544.41;1089657;39;20685;-80
2021/10/01 02:24:41;;;;;;;3.95;1.40;;;;;;;9.60;73.97;100538.25;1088282;54;20023;-79
2021/10/01 02:27:10;;;;;;;4.85;1.70;;;;;;;9.49;74.48;100547.16;1088131;54;20019;-81
2021/10/01 02:28:22;;;;;;;5.85;1.67;;;;;;;9.36;74.29;100548.13;1088138;54;20023;-79
2021/10/01 02:29:29;;;;;;;5.70;1.90;;;;;;;9.32;74.75;100543.19;1088057;54;20042;-80
2021/10/01 02:30:32;;;;;;;3.95;1.65;;;;;;;9.32;74.44;100538.69;1088226;54;20030;-80
2021/10/01 02:31:44;;;;;;;5.78;1.50;;;;;;;9.35;74.48;100540.28;1092515;46;20037;-80
2021/10/01 02:32:53;;;;;;;3.65;1.70;;;;;;;9.34;74.56;100538.56;1088197;54;20058;-81
2021/10/01 02:34:01;;;;;;;6.30;1.90;;;;;;;9.34;74.35;100538.56;1088185;54;20018;-79
2021/10/01 02:35:09;;;;;;;3.78;1.40;;;;;;;9.37;74.40;100535.63;1088271;54;20041;-81
2021/10/01 02:36:11;;;;;;;4.82;1.55;;;;;;;9.38;74.46;100545.34;1088194;54;20061;-80
2021/10/01 02:37:16;;;;;;;4.40;1.48;;;;;;;9.39;74.20;100541.69;1088201;54;20022;-80
2021/10/01 02:38:17;;;;;;;4.65;1.75;;;;;;;9.40;74.13;100532.72;1088208;54;20011;-80
2021/10/01 02:39:28;;;;;;;5.47;2.17;;;;;;;9.36;74.41;100537.47;1088112;54;20026;-79
2021/10/01 02:40:33;;;;;;;6.50;1.88;;;;;;;9.37;74.03;100532.97;1088158;54;20034;-80
2021/10/01 02:41:34;;;;;;;4.20;1.73;;;;;;;9.38;74.37;100525.81;1088168;54;20034;-80
2021/10/01 02:42:39;;;;;;;4.97;1.90;;;;;;;9.36;74.08;100529.47;1088174;54;20030;-80
2021/10/01 02:43:40;;;;;;;4.38;1.40;;;;;;;9.32;74.39;100528.00;1088154;54;20022;-80
2021/10/01 02:44:47;;;;;;;4.07;1.50;;;;;;;9.29;74.31;100522.94;1088333;47;20030;-80
2021/10/01 02:45:48;;;;;;;4.68;1.63;;;;;;;9.25;74.49;100526.81;1088203;54;20717;-79
2021/10/01 02:46:56;;;;;;;4.28;1.40;;;;;;;9.25;74.33;100524.16;1088186;54;20034;-79
2021/10/01 02:48:00;;;;;;;4.82;1.70;;;;;;;9.28;74.37;100525.72;1088155;54;20803;-79
2021/10/01 02:49:05;;;;;;;4.03;1.63;;;;;;;9.23;74.46;100523.41;1088168;54;20029;-82
2021/10/01 02:50:14;;;;;;;4.97;2.00;;;;;;;9.20;74.84;100521.84;1091532;47;20030;-80
2021/10/01 02:51:23;;;;;;;6.25;1.83;;;;;;;9.14;75.05;100522.34;1090732;39;20642;-79
2021/10/01 02:52:32;;;;;;;4.72;1.85;;;;;;;9.16;75.04;100520.38;1088086;54;20034;-79
2021/10/01 02:53:46;;;;;;;6.30;2.08;;;;;;;9.17;74.84;100524.75;1088038;54;20058;-81
2021/10/01 02:54:54;;;;;;;3.97;1.63;;;;;;;9.11;74.96;100511.09;1088153;54;20034;-81
2021/10/01 02:56:04;;;;;;;6.15;2.22;;;;;;;9.09;75.17;100529.03;1090113;47;20034;-80
2021/10/01 02:57:13;;;;;;;4.57;1.90;;;;;;;9.09;75.15;100523.69;1088033;54;20041;-80
2021/10/01 02:58:22;;;;;;;5.82;2.17;;;;;;;9.10;74.92;100522.72;1088174;54;20031;-80
2021/10/01 02:59:28;;;;;;;5.47;1.83;;;;;;;9.08;74.87;100517.50;1090799;39;20648;-80
2021/10/01 03:00:32;;;;;;;6.50;1.80;;;;;;;9.08;75.14;100522.84;1088143;54;20023;-80
2021/10/01 03:01:46;;;;;;;4.43;1.80;;;;;;;9.08;75.02;100514.84;1094986;39;20622;-81
2021/10/01 03:02:54;;;;;;;4.40;1.60;;;;;;;9.10;74.97;100507.56;1088106;54;20026;-80
2021/10/01 03:04:01;;;;;;;8.27;2.58;;;;;;;9.12;74.59;100513.63;1092597;47;20034;-80
2021/10/01 03:05:07;;;;;;;4.90;1.70;;;;;;;9.13;74.80;100518.00;1088246;54;20038;-80
2021/10/01 03:06:12;;;;;;;4.05;1.40;;;;;;;9.15;74.87;100515.19;1089164;39;20665;-80
2021/10/01 03:07:18;;;;;;;7.28;1.52;;;;;;;9.17;74.42;100510.59;1088450;54;20034;-80
2021/10/01 03:08:21;;;;;;;4.82;1.58;;;;;;;9.18;74.65;100520.28;1088511;54;20038;-79
2021/10/01 03:09:32;;;;;;;5.43;1.85;;;;;;;9.19;74.59;100519.31;1088941;46;20082;-79
2021/10/01 03:10:35;;;;;;;4.35;1.83;;;;;;;9.19;74.47;100514.81;1102903;39;20610;-80
2021/10/01 03:11:42;;;;;;;4.55;1.73;;;;;;;9.14;74.21;100511.69;1089676;46;20718;-80
2021/10/01 03:15:01;;;;;;;4.15;1.80;;;;;;;9.12;74.77;100507.44;1087744;54;20031;-78
2021/10/01 03:16:03;;;;;;;4.15;1.70;;;;;;;9.11;74.40;100511.94;1088458;54;20038;-78
2021/10/01 03:17:22;;;;;;;5.80;2.03;;;;;;;9.11;74.42;100514.59;1088476;54;20046;-80
2021/10/01 03:18:28;;;;;;;4.20;1.50;;;;;;;9.14;74.28;100511.69;1088315;54;20030;-80
2021/10/01 03:19:32;;;;;;;5.80;1.90;;;;;;;9.13;74.57;100507.31;1090751;46;20033;-80
2021/10/01 03:20:34;;;;;;;5.28;1.70;;;;;;;9.11;74.37;100511.94;1088124;54;20034;-80
2021/10/01 03:21:43;;;;;;;5.57;2.13;;;;;;;9.11;74.65;100505.75;1088840;46;20037;-79
2021/10/01 03:22:45;;;;;;;4.68;1.80;;;;;;;9.09;74.55;100508.53;1088242;54;20041;-81
2021/10/01 03:23:52;;;;;;;4.75;1.98;;;;;;;9.11;74.47;100511.94;1088968;46;20039;-79
2021/10/01 03:24:54;;;;;;;5.63;1.90;;;;;;;9.10;74.67;100509.41;1089748;46;20041;-81
2021/10/01 03:25:59;;;;;;;4.50;1.88;;;;;;;9.11;74.55;100511.09;1088286;54;20725;-79
2021/10/01 03:27:01;;;;;;;8.20;2.95;;;;;;;9.13;74.21;100503.78;1088459;54;20038;-79
2021/10/01 03:28:07;;;;;;;4.93;2.00;;;;;;;9.13;74.20;100504.66;1088511;54;20015;-77
2021/10/01 03:29:11;;;;;;;5.45;1.92;;;;;;;9.16;74.14;100509.72;1088465;54;20022;-80
2021/10/01 03:30:15;;;;;;;4.60;1.73;;;;;;;9.18;74.23;100501.63;1088315;54;20042;-81
2021/10/01 03:31:17;;;;;;;6.82;1.73;;;;;;;9.18;74.21;100499.78;1090230;39;20546;-79
2021/10/01 03:32:25;;;;;;;4.57;2.08;;;;;;;9.21;74.24;100504.88;1088177;54;20030;-79
2021/10/01 03:33:28;;;;;;;5.40;2.00;;;;;;;9.17;74.24;100500.75;1088266;54;20019;-81
2021/10/01 03:34:32;;;;;;;4.50;1.73;;;;;;;9.20;74.21;100499.69;1088395;54;20031;-79
2021/10/01 03:35:39;;;;;;;4.30;1.80;;;;;;;9.23;74.20;100501.25;1088278;54;20061;-80
2021/10/01 03:36:46;;;;;;;4.28;1.42;;;;;;;9.22;74.00;100500.38;1089069;46;20090;-79
2021/10/01 03:37:48;;;;;;;4.90;1.58;;;;;;;9.18;74.11;100494.44;1088249;54;20058;-79
2021/10/01 03:38:56;;;;;;;3.97;1.58;;;;;;;9.17;74.24;100495.41;1088926;46;20030;-80
2021/10/01 03:40:00;;;;;;;5.55;2.05;;;;;;;9.17;74.28;100495.41;1089834;46;20080;-80
2021/10/01 03:41:04;;;;;;;5.22;1.70;;;;;;;9.13;74.07;100496.66;1093764;39;20245;-80
2021/10/01 03:42:06;;;;;;;4.07;1.55;;;;;;;9.15;74.14;100497.38;1088280;54;20041;-81
2021/10/01 03:43:12;;;;;;;4.15;1.60;;;;;;;9.16;73.99;100496.38;1088321;54;20062;-80
2021/10/01 03:44:16;;;;;;;6.72;1.65;;;;;;;9.15;74.05;100489.38;1088154;54;20043;-80
2021/10/01 03:45:18;;;;;;;5.78;1.58;;;;;;;9.13;74.21;100488.66;1092177;46;20042;-79
2021/10/01 03:46:22;;;;;;;4.13;1.63;;;;;;;9.07;74.16;100494.47;1088223;54;20026;-79
2021/10/01 03:47:28;;;;;;;4.53;1.52;;;;;;;9.09;74.19;100495.19;1088632;46;20119;-81
2021/10/01 03:48:36;;;;;;;3.83;1.40;;;;;;;9.07;74.20;100496.28;1088270;54;20034;-79
2021/10/01 03:49:40;;;;;;;4.78;1.88;;;;;;;9.04;74.22;100484.91;1088114;54;20033;-79
2021/10/01 03:50:43;;;;;;;5.47;1.85;;;;;;;9.08;74.03;100498.00;1088091;54;20038;-78
2021/10/01 03:51:49;;;;;;;5.47;1.85;;;;;;;9.05;74.12;100491.09;1087991;54;20077;-78
2021/10/01 03:52:51;;;;;;;5.43;2.10;;;;;;;8.99;74.05;100488.91;1087934;54;20030;-79
2021/10/01 03:53:56;;;;;;;5.05;2.03;;;;;;;8.98;74.28;100487.19;1088219;46;20053;-79
2021/10/01 03:54:57;;;;;;;6.32;1.90;;;;;;;8.99;74.18;100496.91;1087967;54;20030;-79
2021/10/01 03:56:01;;;;;;;5.40;1.88;;;;;;;9.01;74.11;100492.31;1087746;54;20098;-77
2021/10/01 03:57:04;;;;;;;5.15;1.80;;;;;;;9.03;74.13;100490.38;1087689;54;20034;-79
2021/10/01 03:58:09;;;;;;;4.75;1.60;;;;;;;9.02;74.18;100491.34;1087690;54;20034;-79
2021/10/01 03:59:10;;;;;;;6.10;2.00;;;;;;;9.03;74.25;100490.38;1087680;54;20046;-80
2021/10/01 04:00:16;;;;;;;4.70;1.60;;;;;;;9.06;73.91;100492.78;1087974;54;20808;-78
2021/10/01 04:01:20;;;;;;;5.03;1.63;;;;;;;9.01;74.16;100487.84;1088016;54;20025;-79
2021/10/01 04:02:22;;;;;;;7.82;2.10;;;;;;;9.01;74.17;100489.63;1088024;54;20034;-78
2021/10/01 04:03:26;;;;;;;4.50;1.60;;;;;;;9.01;74.24;100486.97;1087917;54;20035;-78
2021/10/01 04:04:28;;;;;;;5.72;2.00;;;;;;;8.99;74.20;100480.91;1087980;54;20050;-78
2021/10/01 04:05:32;;;;;;;5.20;1.88;;;;;;;8.97;74.24;100486.38;1088495;46;20042;-78
2021/10/01 04:06:38;;;;;;;5.25;1.60;;;;;;;8.98;74.19;100484.53;1088093;54;20023;-79
2021/10/01 04:07:43;;;;;;;6.75;2.20;;;;;;;8.95;74.15;100496.31;1087757;54;20053;-78
2021/10/01 04:08:48;;;;;;;4.15;1.85;;;;;;;8.90;74.40;100482.50;1088009;54;20090;-77
2021/10/01 04:09:49;;;;;;;4.82;1.90;;;;;;;8.85;74.44;100484.69;1088032;54;20035;-78
2021/10/01 04:10:54;;;;;;;5.07;1.95;;;;;;;8.83;74.51;100484.81;1088014;54;20041;-79
2021/10/01 04:11:57;;;;;;;4.40;1.70;;;;;;;8.78;74.59;100481.69;1087654;54;20031;-79
2021/10/01 04:13:01;;;;;;;4.93;2.15;;;;;;;8.78;74.69;100486.16;1087753;54;20090;-78
2021/10/01 04:14:05;;;;;;;4.85;1.80;;;;;;;8.78;74.54;100489.69;1089289;46;20031;-78
2021/10/01 04:15:08;;;;;;;5.13;2.30;;;;;;;8.76;74.83;100480.94;1087917;54;20034;-78
2021/10/01 04:16:12;;;;;;;4.68;2.20;;;;;;;8.74;74.68;100478.38;1087954;54;20081;-78
2021/10/01 04:17:13;;;;;;;6.45;2.30;;;;;;;8.74;74.81;100489.06;1090117;39;20649;-78
2021/10/01 04:18:19;;;;;;;8.70;2.67;;;;;;;8.70;74.64;100476.94;1087786;54;20037;-78
2021/10/01 04:19:20;;;;;;;4.18;1.80;;;;;;;8.76;74.77;100480.94;1087842;54;20034;-78
2021/10/01 04:20:24;;;;;;;5.30;2.08;;;;;;;8.76;74.71;100483.63;1088027;54;20077;-78
2021/10/01 04:21:26;;;;;;;5.32;2.00;;;;;;;8.77;74.25;100477.31;1088056;54;20045;-78
2021/10/01 04:22:31;;;;;;;4.82;1.83;;;;;;;8.76;74.56;100482.75;1087975;54;20034;-79
2021/10/01 04:23:35;;;;;;;5.18;2.28;;;;;;;8.76;74.59;100482.75;1087971;54;20034;-79
2021/10/01 04:24:41;;;;;;;4.75;1.95;;;;;;;8.76;74.45;100480.94;1087846;54;20030;-78
2021/10/01 04:25:42;;;;;;;5.22;2.30;;;;;;;8.78;74.33;100473.69;1088020;54;20035;-78
2021/10/01 04:26:47;;;;;;;4.57;1.77;;;;;;;8.82;74.23;100480.44;1087990;54;20034;-78
2021/10/01 04:27:49;;;;;;;4.15;1.48;;;;;;;8.84;74.14;100478.50;1087945;54;20031;-78
2021/10/01 04:28:53;;;;;;;4.50;1.48;;;;;;;8.84;73.99;100465.19;1087752;54;20371;-79
2021/10/01 04:29:57;;;;;;;8.75;2.10;;;;;;;8.85;74.28;100474.00;1092333;39;20624;-76
2021/10/01 04:31:01;;;;;;;3.50;1.48;;;;;;;8.84;74.07;100467.84;1087895;54;20015;-77
2021/10/01 04:32:05;;;;;;;4.45;2.00;;;;;;;8.82;74.15;100475.13;1087979;54;20026;-79
2021/10/01 04:33:20;;;;;;;4.93;1.92;;;;;;;8.83;74.17;100471.47;1087827;54;20042;-78
2021/10/01 04:34:25;;;;;;;4.35;1.80;;;;;;;8.82;74.29;100468.94;1087881;54;20027;-78
2021/10/01 04:35:26;;;;;;;6.50;1.80;;;;;;;8.84;74.11;100466.97;1087911;54;20045;-78
2021/10/01 04:36:32;;;;;;;3.97;1.70;;;;;;;8.83;73.86;100473.31;1087849;54;20086;-80
2021/10/01 04:37:33;;;;;;;4.90;1.60;;;;;;;8.79;74.04;100474.53;1087909;54;20030;-78
2021/10/01 04:38:40;;;;;;;6.47;1.92;;;;;;;8.78;73.98;100468.34;1087751;54;20034;-77
2021/10/01 04:39:42;;;;;;;5.10;1.63;;;;;;;8.78;74.14;100468.34;1087834;54;20046;-77
2021/10/01 04:40:46;;;;;;;4.75;1.90;;;;;;;8.76;74.16;100466.75;1087972;54;20045;-78
2021/10/01 04:41:50;;;;;;;7.03;1.75;;;;;;;8.76;74.11;100469.41;1093108;39;20575;-78
2021/10/01 04:42:51;;;;;;;5.00;2.13;;;;;;;8.75;74.21;100468.59;1087873;54;20031;-77
2021/10/01 04:43:55;;;;;;;5.43;1.75;;;;;;;8.72;74.08;100468.81;1087985;54;20030;-77
2021/10/01 04:44:58;;;;;;;4.95;1.90;;;;;;;8.74;74.16;100469.56;1088332;46;20042;-79
2021/10/01 04:46:02;;;;;;;5.05;1.67;;;;;;;8.76;74.03;100474.75;1087973;54;20037;-78
2021/10/01 04:47:04;;;;;;;5.32;1.83;;;;;;;8.76;74.29;100470.28;1087947;54;20042;-78
2021/10/01 04:48:09;;;;;;;4.88;2.00;;;;;;;8.77;74.30;100469.31;1087962;54;20031;-78
2021/10/01 04:49:12;;;;;;;6.82;1.67;;;;;;;8.76;74.24;100466.75;1087864;54;20031;-77
2021/10/01 04:50:16;;;;;;;6.35;1.90;;;;;;;8.73;74.45;100475.84;1087934;54;20399;-77
2021/10/01 04:51:19;;;;;;;4.72;1.90;;;;;;;8.74;74.28;100472.22;1088065;54;20300;-79
2021/10/01 04:52:23;;;;;;;6.07;1.77;;;;;;;8.70;74.27;100463.63;1087896;54;20041;-78
2021/10/01 04:53:24;;;;;;;4.15;1.33;;;;;;;8.72;74.51;100464.34;1087909;54;20035;-79
2021/10/01 04:54:31;;;;;;;8.48;1.80;;;;;;;8.68;74.63;100464.72;1088004;54;20031;-79
2021/10/01 04:55:33;;;;;;;4.88;2.00;;;;;;;8.66;74.61;100459.50;1087888;54;20038;-77
2021/10/01 04:56:37;;;;;;;8.23;1.95;;;;;;;8.68;74.52;100462.06;1087982;54;20034;-77
2021/10/01 04:57:39;;;;;;;4.90;2.20;;;;;;;8.64;74.49;100463.25;1087987;54;20015;-78
2021/10/01 04:58:43;;;;;;;7.25;2.15;;;;;;;8.61;74.43;100466.16;1088014;54;20106;-78
2021/10/01 04:59:45;;;;;;;5.78;2.28;;;;;;;8.61;74.63;100468.81;1087879;54;20045;-78
2021/10/01 05:00:49;;;;;;;5.45;1.45;;;;;;;8.62;74.38;100462.53;1087935;54;20073;-78
2021/10/01 05:01:50;;;;;;;6.05;1.90;;;;;;;8.58;74.69;100457.47;1087905;54;20033;-78
2021/10/01 05:02:54;;;;;;;5.82;1.90;;;;;;;8.56;74.63;100461.19;1087928;54;20042;-78
2021/10/01 05:03:56;;;;;;;5.18;1.95;;;;;;;8.56;74.63;100469.19;1087869;54;20035;-78
2021/10/01 05:05:00;;;;;;;5.82;1.83;;;;;;;8.53;74.62;100466.78;1087869;54;20030;-79
2021/10/01 05:06:04;;;;;;;5.30;2.10;;;;;;;8.52;74.66;100470.41;1087847;54;20030;-80
2021/10/01 05:07:06;;;;;;;4.40;1.73;;;;;;;8.49;74.87;100460.84;1087940;54;20049;-77
2021/10/01 05:08:10;;;;;;;8.63;2.42;;;;;;;8.48;74.88;100464.47;1088463;39;20629;-78
2021/10/01 05:09:12;;;;;;;5.50;2.53;;;;;;;8.38;75.24;100468.81;1087944;54;20041;-79
2021/10/01 05:10:19;;;;;;;4.88;2.30;;;;;;;8.38;75.15;100460.81;1091294;39;20701;-79
2021/10/01 05:11:21;;;;;;;5.05;2.60;;;;;;;8.36;75.03;100457.41;1087894;54;20039;-77
2021/10/01 05:12:25;;;;;;;4.53;2.13;;;;;;;8.37;75.31;100459.13;1087890;54;20033;-79